Time;durP1;ratioP1;P1;durP2;ratioP2;P2;SDS_P1;SDS_P2;PMS_P1;PMS_P2;Temp;Humidity;BMP_temperature;BMP_pressure;BME280_temperature;BME280_humidity;BME280_pressure;Samples;Min_cycle;Max_cycle;Signal;HPM_P1;HPM_P2
2023/07/03 00:00:54;;;;;;;4.50;3.53;;;15.60;77.10;;;;;;5094339;28;20998;-74
2023/07/03 00:03:22;;;;;;;5.20;4.10;;;15.70;77.50;;;;;;5098716;28;20955;-73
2023/07/03 00:05:49;;;;;;;5.10;3.33;;;15.70;77.30;;;;;;5094341;28;20992;-74
2023/07/03 00:08:17;;;;;;;6.67;4.73;;;15.80;76.60;;;;;;5094054;28;20627;-73
2023/07/03 00:10:44;;;;;;;4.57;3.47;;;15.80;77.40;;;;;;5094211;28;20654;-73
2023/07/03 00:13:11;;;;;;;4.47;3.50;;;15.80;76.80;;;;;;5093716;28;20642;-73
2023/07/03 00:15:39;;;;;;;10.40;3.90;;;15.90;76.40;;;;;;5099502;28;20637;-73
2023/07/03 00:18:06;;;;;;;7.60;4.13;;;16.00;75.20;;;;;;5094127;28;20655;-74
2023/07/03 00:20:33;;;;;;;3.77;2.60;;;16.00;74.00;;;;;;5093085;28;20646;-73
2023/07/03 00:23:00;;;;;;;5.50;4.40;;;16.00;73.80;;;;;;5100651;28;20639;-74
2023/07/03 00:25:26;;;;;;;4.67;3.93;;;16.10;74.00;;;;;;5093457;28;20647;-74
2023/07/03 00:27:54;;;;;;;5.67;4.10;;;16.10;73.70;;;;;;5096690;28;20642;-74
2023/07/03 00:30:20;;;;;;;7.20;3.87;;;16.20;73.50;;;;;;5101406;28;20674;-74
2023/07/03 00:32:48;;;;;;;6.07;4.23;;;16.20;73.10;;;;;;5093214;28;20684;-74
2023/07/03 00:35:15;;;;;;;4.10;3.20;;;16.20;73.10;;;;;;5098166;28;20641;-74
2023/07/03 00:37:42;;;;;;;5.70;4.17;;;16.20;73.30;;;;;;5093779;28;20657;-74
2023/07/03 00:40:10;;;;;;;5.70;4.33;;;16.30;73.60;;;;;;5092635;28;20727;-74
2023/07/03 00:42:37;;;;;;;4.17;3.20;;;16.30;73.50;;;;;;5096953;28;20968;-74
2023/07/03 00:45:08;;;;;;;5.93;4.00;;;16.30;73.40;;;;;;5096739;28;20616;-74
2023/07/03 00:47:35;;;;;;;6.40;4.80;;;16.30;72.60;;;;;;5095205;28;21036;-74
2023/07/03 00:50:03;;;;;;;10.20;3.80;;;16.40;73.10;;;;;;5092439;28;20627;-74
2023/07/03 00:52:30;;;;;;;10.60;3.77;;;16.40;72.90;;;;;;5098358;28;20629;-74
2023/07/03 00:54:57;;;;;;;8.97;4.50;;;16.40;72.50;;;;;;5094863;28;20968;-74
2023/07/03 00:57:25;;;;;;;5.33;3.53;;;16.40;72.80;;;;;;5100237;28;20644;-74
2023/07/03 00:59:53;;;;;;;9.30;4.43;;;16.50;72.50;;;;;;5101776;28;20723;-75
2023/07/03 01:02:25;;;;;;;4.83;3.80;;;16.50;72.00;;;;;;5094260;28;20648;-74
2023/07/03 01:04:58;;;;;;;4.93;3.37;;;16.40;74.10;;;;;;5093787;28;20632;-74
2023/07/03 01:07:30;;;;;;;5.77;4.13;;;16.60;73.30;;;;;;5095683;28;20645;-74
2023/07/03 01:10:00;;;;;;;4.97;3.33;;;16.60;72.60;;;;;;5097350;28;20640;-74
2023/07/03 01:12:30;;;;;;;5.50;3.80;;;16.60;72.30;;;;;;5092728;28;20713;-74
2023/07/03 01:15:01;;;;;;;5.57;3.83;;;16.60;72.10;;;;;;5096865;28;20630;-74
2023/07/03 01:17:30;;;;;;;4.83;3.63;;;16.60;72.30;;;;;;5096105;28;20640;-74
2023/07/03 01:20:00;;;;;;;4.60;3.37;;;16.60;73.00;;;;;;5100928;28;20624;-74
2023/07/03 01:22:36;;;;;;;8.17;4.03;;;16.60;72.50;;;;;;5097354;28;20759;-74
2023/07/03 01:25:08;;;;;;;4.90;3.80;;;16.70;72.00;;;;;;5106292;28;20619;-74
2023/07/03 01:27:41;;;;;;;4.40;3.60;;;16.70;72.50;;;;;;5098151;28;20643;-74
2023/07/03 01:30:12;;;;;;;6.17;3.80;;;16.80;71.70;;;;;;5097947;28;20623;-74
2023/07/03 01:32:40;;;;;;;6.60;4.93;;;16.80;72.90;;;;;;5090959;28;20724;-74
2023/07/03 01:35:09;;;;;;;4.20;3.77;;;16.80;71.80;;;;;;5096114;28;20669;-74
2023/07/03 01:37:40;;;;;;;6.90;4.83;;;16.80;71.80;;;;;;5083934;28;20620;-74
2023/07/03 01:40:11;;;;;;;6.33;4.97;;;16.70;71.40;;;;;;5091454;28;20682;-74
2023/07/03 01:42:41;;;;;;;4.73;3.03;;;16.80;72.00;;;;;;5091918;28;20643;-73
2023/07/03 01:45:10;;;;;;;7.03;4.03;;;16.80;72.30;;;;;;5092400;28;20655;-73
2023/07/03 01:47:38;;;;;;;6.57;4.67;;;16.80;71.90;;;;;;5092502;28;20667;-73
2023/07/03 01:50:08;;;;;;;4.40;3.33;;;16.90;71.90;;;;;;5100637;28;20632;-74
2023/07/03 01:52:39;;;;;;;5.23;4.60;;;16.90;71.80;;;;;;5096502;28;20728;-73
2023/07/03 01:55:12;;;;;;;5.77;4.17;;;16.90;71.80;;;;;;5091630;28;20716;-73
2023/07/03 01:57:46;;;;;;;5.50;4.00;;;17.00;71.70;;;;;;5093226;28;20625;-73
2023/07/03 02:00:16;;;;;;;6.23;4.70;;;16.90;71.00;;;;;;5092741;28;21147;-73
2023/07/03 02:02:48;;;;;;;6.50;4.20;;;16.90;71.60;;;;;;5094223;28;20617;-73
2023/07/03 02:05:22;;;;;;;6.70;4.10;;;16.80;71.80;;;;;;5094104;28;20720;-73
2023/07/03 02:07:52;;;;;;;8.50;3.17;;;16.90;72.10;;;;;;5092012;28;21248;-73
2023/07/03 02:10:20;;;;;;;4.20;3.53;;;16.90;72.40;;;;;;5099173;28;20613;-74
2023/07/03 02:12:48;;;;;;;6.23;3.93;;;17.00;72.30;;;;;;5091738;28;20631;-74
2023/07/03 02:15:15;;;;;;;3.93;3.53;;;16.90;71.80;;;;;;5090363;28;20627;-73
2023/07/03 02:17:43;;;;;;;6.43;4.53;;;16.90;72.70;;;;;;5091868;28;20747;-74
2023/07/03 02:20:13;;;;;;;5.43;3.73;;;17.00;72.50;;;;;;5090767;28;20738;-74
2023/07/03 02:22:41;;;;;;;4.63;3.83;;;17.00;72.10;;;;;;5095786;28;20612;-74
2023/07/03 02:25:08;;;;;;;5.13;3.73;;;17.00;72.00;;;;;;5094128;28;20609;-73
2023/07/03 02:27:37;;;;;;;6.10;3.50;;;17.00;72.30;;;;;;5094692;28;20624;-74
2023/07/03 02:30:04;;;;;;;4.87;3.90;;;17.00;72.10;;;;;;5091142;28;20623;-73
2023/07/03 02:32:35;;;;;;;7.20;5.27;;;17.00;72.30;;;;;;5094352;28;20986;-73
2023/07/03 02:35:02;;;;;;;9.00;5.03;;;17.00;72.80;;;;;;5094021;28;21027;-73
2023/07/03 02:37:29;;;;;;;5.80;4.20;;;17.00;72.80;;;;;;5098536;28;20621;-74
2023/07/03 02:39:56;;;;;;;4.23;3.10;;;17.10;71.70;;;;;;5090607;28;20649;-74
2023/07/03 02:42:23;;;;;;;6.20;3.70;;;17.10;71.00;;;;;;5097708;28;20653;-74
2023/07/03 02:44:53;;;;;;;9.17;3.90;;;17.10;71.20;;;;;;5091167;28;20728;-74
2023/07/03 02:47:21;;;;;;;5.27;3.40;;;17.00;73.30;;;;;;5094392;28;20673;-74
2023/07/03 02:49:49;;;;;;;7.90;3.60;;;17.00;72.80;;;;;;5090551;28;20621;-74
2023/07/03 02:52:16;;;;;;;5.33;4.30;;;17.10;71.30;;;;;;5098999;28;21002;-73
2023/07/03 02:54:44;;;;;;;4.83;3.93;;;17.00;71.20;;;;;;5100382;28;20628;-74
2023/07/03 02:57:11;;;;;;;6.70;4.27;;;17.10;71.60;;;;;;5096272;28;20633;-74
2023/07/03 02:59:39;;;;;;;4.83;2.97;;;17.00;71.80;;;;;;5089783;28;20637;-74
2023/07/03 03:02:07;;;;;;;6.23;3.10;;;17.10;72.10;;;;;;5092661;28;20674;-74
2023/07/03 03:04:36;;;;;;;5.73;3.50;;;17.10;72.20;;;;;;5097962;28;20624;-74
2023/07/03 03:07:04;;;;;;;5.57;4.57;;;17.10;71.30;;;;;;5091869;28;20644;-73
2023/07/03 03:09:31;;;;;;;6.13;4.23;;;17.10;71.80;;;;;;5096265;28;20619;-74
2023/07/03 03:11:59;;;;;;;7.43;4.10;;;17.20;71.30;;;;;;5091812;28;20640;-73
2023/07/03 03:14:27;;;;;;;7.17;4.30;;;17.20;71.00;;;;;;5095311;28;20997;-74
2023/07/03 03:16:53;;;;;;;6.00;4.53;;;17.20;70.50;;;;;;5095712;28;20736;-73
2023/07/03 03:19:22;;;;;;;4.50;3.40;;;17.20;70.70;;;;;;5098019;28;20643;-74
2023/07/03 03:21:50;;;;;;;6.97;3.90;;;17.20;70.90;;;;;;5099644;28;20673;-74
2023/07/03 03:24:20;;;;;;;5.70;3.70;;;17.20;71.60;;;;;;5099747;28;21149;-74
2023/07/03 03:26:48;;;;;;;7.23;3.90;;;17.20;72.50;;;;;;5095491;28;20645;-74
2023/07/03 03:29:15;;;;;;;3.57;3.27;;;17.30;72.00;;;;;;5094095;28;20972;-74
2023/07/03 03:31:43;;;;;;;5.30;3.80;;;17.30;71.10;;;;;;5093314;28;21005;-74
2023/07/03 03:34:12;;;;;;;4.70;3.30;;;17.30;70.90;;;;;;5104074;28;20612;-74
2023/07/03 03:36:41;;;;;;;5.13;3.70;;;17.30;70.60;;;;;;5101481;28;21177;-74
2023/07/03 03:39:08;;;;;;;5.50;3.13;;;17.30;70.30;;;;;;5099735;28;21048;-74
2023/07/03 03:41:35;;;;;;;5.13;3.90;;;17.30;70.70;;;;;;5095303;28;20660;-74
2023/07/03 03:44:01;;;;;;;7.97;4.73;;;17.30;71.90;;;;;;5098796;28;21027;-73
2023/07/03 03:46:28;;;;;;;3.73;2.83;;;17.30;71.90;;;;;;5096597;28;20640;-73
2023/07/03 03:48:55;;;;;;;4.60;4.20;;;17.30;70.90;;;;;;5093958;28;20669;-73
2023/07/03 03:51:23;;;;;;;9.13;4.70;;;17.40;70.60;;;;;;5102242;28;20644;-73
2023/07/03 03:53:51;;;;;;;5.93;4.07;;;17.40;70.30;;;;;;5094078;28;21058;-73
2023/07/03 03:56:19;;;;;;;6.83;3.60;;;17.30;70.70;;;;;;5101209;28;20643;-73
2023/07/03 03:58:46;;;;;;;5.33;3.70;;;17.30;70.60;;;;;;5101336;28;20953;-73
2023/07/03 04:01:12;;;;;;;4.30;3.10;;;17.30;70.80;;;;;;5095277;28;20641;-73
2023/07/03 04:03:39;;;;;;;5.03;3.40;;;17.20;70.80;;;;;;5101932;28;20624;-73
2023/07/03 04:06:07;;;;;;;7.20;4.60;;;17.20;71.10;;;;;;5097594;28;20656;-73
2023/07/03 04:08:33;;;;;;;8.40;4.77;;;17.30;70.90;;;;;;5099976;28;20624;-73
2023/07/03 04:11:02;;;;;;;5.67;3.70;;;17.20;70.70;;;;;;5101130;28;20645;-73
2023/07/03 04:13:28;;;;;;;7.53;4.60;;;17.10;71.70;;;;;;5095358;28;20740;-73
2023/07/03 04:16:00;;;;;;;5.23;3.30;;;17.20;71.50;;;;;;5102796;28;20660;-74
2023/07/03 04:18:28;;;;;;;6.20;3.80;;;17.10;71.70;;;;;;5096485;28;20695;-73
2023/07/03 04:20:55;;;;;;;4.63;3.40;;;17.10;72.40;;;;;;5092306;28;20961;-74
2023/07/03 04:23:22;;;;;;;7.93;4.20;;;17.20;72.20;;;;;;5085873;28;20636;-75
2023/07/03 04:25:49;;;;;;;4.20;3.70;;;17.20;71.30;;;;;;5094599;28;20644;-75
2023/07/03 04:28:19;;;;;;;5.90;3.90;;;17.10;71.90;;;;;;5092883;28;20670;-74
2023/07/03 04:30:47;;;;;;;4.87;4.03;;;17.20;71.90;;;;;;5093708;28;20688;-74
2023/07/03 04:33:14;;;;;;;5.10;3.67;;;17.00;73.30;;;;;;5093112;28;21200;-73
2023/07/03 04:35:42;;;;;;;8.70;4.10;;;17.10;72.60;;;;;;5086829;28;21303;-73
2023/07/03 04:38:09;;;;;;;5.13;4.60;;;17.20;72.40;;;;;;5097747;28;20661;-73
2023/07/03 04:40:36;;;;;;;5.67;5.17;;;17.30;72.30;;;;;;5092689;28;20672;-73
2023/07/03 04:43:03;;;;;;;4.73;3.07;;;17.30;73.60;;;;;;5093155;28;20636;-73
2023/07/03 04:45:34;;;;;;;6.23;3.10;;;17.30;72.60;;;;;;5093571;28;20666;-71
2023/07/03 04:48:01;;;;;;;6.43;4.30;;;17.20;73.10;;;;;;5097728;28;20625;-71
2023/07/03 04:50:27;;;;;;;5.37;3.70;;;17.20;72.10;;;;;;5092531;28;21219;-75
2023/07/03 04:52:54;;;;;;;4.00;3.20;;;17.30;72.00;;;;;;5094253;28;20663;-76
2023/07/03 04:55:21;;;;;;;6.60;3.50;;;17.30;72.50;;;;;;5093279;28;20632;-75
2023/07/03 04:57:48;;;;;;;6.10;4.10;;;17.30;72.60;;;;;;5093389;28;20993;-76
2023/07/03 05:00:18;;;;;;;7.40;3.27;;;17.30;72.50;;;;;;5092257;28;20641;-74
2023/07/03 05:02:48;;;;;;;8.03;3.70;;;17.40;72.50;;;;;;5099326;28;21186;-74
2023/07/03 05:05:16;;;;;;;4.63;3.47;;;17.40;73.30;;;;;;5094415;28;20625;-74
2023/07/03 05:07:44;;;;;;;4.03;3.57;;;17.50;73.20;;;;;;5094964;28;20617;-74
2023/07/03 05:10:13;;;;;;;6.67;3.97;;;17.50;72.90;;;;;;5094790;28;20621;-75
2023/07/03 05:12:40;;;;;;;3.90;3.17;;;17.50;72.50;;;;;;5092623;28;20620;-75
2023/07/03 05:15:08;;;;;;;5.90;3.33;;;17.40;73.10;;;;;;5092135;28;20635;-76
2023/07/03 05:17:38;;;;;;;6.00;4.17;;;17.50;73.70;;;;;;5096501;28;20971;-75
2023/07/03 05:20:10;;;;;;;4.17;2.90;;;17.50;72.70;;;;;;5092058;28;20663;-76
2023/07/03 05:22:37;;;;;;;4.43;3.67;;;17.50;73.20;;;;;;5100738;28;20635;-75
2023/07/03 05:25:05;;;;;;;5.70;3.10;;;17.40;74.40;;;;;;5092573;28;20624;-75
2023/07/03 05:27:33;;;;;;;5.13;3.63;;;17.60;73.70;;;;;;5093458;28;20617;-75
2023/07/03 05:29:59;;;;;;;6.23;4.17;;;17.60;73.50;;;;;;5092086;28;20733;-74
2023/07/03 05:32:26;;;;;;;4.60;3.53;;;17.60;73.20;;;;;;5099749;28;21538;-75
2023/07/03 05:34:53;;;;;;;6.47;4.03;;;17.60;73.40;;;;;;5092410;28;20983;-75
2023/07/03 05:37:22;;;;;;;4.33;2.70;;;17.60;74.30;;;;;;5096896;28;20647;-75
2023/07/03 05:39:49;;;;;;;3.50;2.90;;;17.70;73.50;;;;;;5091343;28;20652;-74
2023/07/03 05:42:16;;;;;;;3.30;2.73;;;17.80;73.80;;;;;;5091593;28;20848;-75
2023/07/03 05:44:43;;;;;;;6.70;3.20;;;17.90;73.00;;;;;;5085310;28;20625;-75
2023/07/03 05:47:10;;;;;;;5.50;3.53;;;17.90;72.60;;;;;;5094404;28;20652;-75
2023/07/03 05:49:37;;;;;;;5.00;3.50;;;18.00;72.80;;;;;;5095814;28;20622;-75
2023/07/03 05:52:05;;;;;;;3.73;2.77;;;18.10;72.70;;;;;;5096034;28;20654;-73
2023/07/03 05:54:33;;;;;;;5.60;3.23;;;18.10;72.60;;;;;;5089814;28;20633;-73
2023/07/03 05:57:01;;;;;;;5.50;2.97;;;18.20;72.20;;;;;;5088880;28;20661;-73
2023/07/03 05:59:28;;;;;;;6.70;3.93;;;18.20;71.90;;;;;;5090568;28;20652;-73
2023/07/03 06:01:56;;;;;;;5.07;3.03;;;18.10;73.10;;;;;;5093031;28;20645;-73
2023/07/03 06:04:23;;;;;;;4.47;3.40;;;18.20;72.40;;;;;;5091916;28;20627;-73
2023/07/03 06:06:52;;;;;;;3.50;2.63;;;18.40;73.20;;;;;;5086891;28;20628;-72
2023/07/03 06:09:18;;;;;;;6.83;3.67;;;18.40;71.30;;;;;;5095122;28;20612;-72
2023/07/03 06:11:46;;;;;;;4.97;3.10;;;18.60;72.00;;;;;;5093527;28;20637;-72
2023/07/03 06:14:17;;;;;;;4.53;3.27;;;18.70;73.00;;;;;;5079642;28;20633;-72
2023/07/03 06:16:44;;;;;;;5.00;3.20;;;18.70;71.10;;;;;;5093988;28;20639;-72
2023/07/03 06:19:11;;;;;;;3.77;3.03;;;18.90;71.70;;;;;;5086939;28;20644;-72
2023/07/03 06:21:38;;;;;;;5.37;2.83;;;18.90;72.00;;;;;;5090961;28;20665;-72
2023/07/03 06:24:06;;;;;;;4.47;3.33;;;18.90;71.20;;;;;;5089072;28;20639;-72
2023/07/03 06:26:35;;;;;;;7.73;3.30;;;19.00;71.50;;;;;;5091746;28;20643;-73
2023/07/03 06:29:04;;;;;;;5.70;3.30;;;19.10;70.20;;;;;;5090127;28;20625;-73
2023/07/03 06:31:34;;;;;;;4.07;3.03;;;19.20;70.20;;;;;;5092517;28;20763;-73
2023/07/03 06:34:01;;;;;;;2.57;2.37;;;19.20;70.70;;;;;;5090324;28;21104;-73
2023/07/03 06:36:29;;;;;;;4.10;3.30;;;19.10;69.90;;;;;;5091263;28;20659;-72
2023/07/03 06:38:58;;;;;;;5.97;3.77;;;19.20;69.90;;;;;;5091307;28;20629;-73
2023/07/03 06:41:29;;;;;;;6.03;3.33;;;19.30;69.90;;;;;;5093064;28;20993;-73
2023/07/03 06:43:59;;;;;;;6.70;3.70;;;19.40;69.40;;;;;;5088242;28;20635;-73
2023/07/03 06:46:29;;;;;;;3.53;3.17;;;19.30;70.20;;;;;;5090873;28;20650;-73
2023/07/03 06:48:56;;;;;;;3.90;2.80;;;19.40;69.10;;;;;;5089404;28;20621;-73
2023/07/03 06:51:23;;;;;;;3.70;3.30;;;19.50;71.00;;;;;;5091212;28;20677;-73
2023/07/03 06:53:53;;;;;;;4.27;3.53;;;19.50;71.10;;;;;;5090266;28;20617;-72
2023/07/03 06:56:23;;;;;;;3.83;3.10;;;19.50;69.60;;;;;;5094767;28;21407;-73
2023/07/03 06:58:51;;;;;;;5.20;3.40;;;19.60;68.90;;;;;;5089745;28;20612;-73
2023/07/03 07:01:20;;;;;;;8.80;3.10;;;19.60;67.80;;;;;;5090162;28;20669;-73
2023/07/03 07:03:48;;;;;;;4.33;3.30;;;19.60;69.20;;;;;;5091907;28;20627;-73
2023/07/03 07:06:21;;;;;;;4.50;3.30;;;19.60;70.70;;;;;;5086543;28;21027;-73
2023/07/03 07:08:51;;;;;;;3.37;3.07;;;19.60;69.00;;;;;;5089836;28;21002;-73
2023/07/03 07:11:23;;;;;;;4.90;3.93;;;19.50;69.10;;;;;;5087925;28;20656;-73
2023/07/03 07:13:53;;;;;;;5.13;3.20;;;19.50;69.60;;;;;;5089885;28;20728;-73
2023/07/03 07:16:25;;;;;;;8.27;4.47;;;19.70;69.30;;;;;;5091281;28;20644;-73
2023/07/03 07:18:56;;;;;;;6.87;3.47;;;19.70;68.30;;;;;;5091182;28;20627;-73
2023/07/03 07:21:26;;;;;;;4.87;3.63;;;19.70;69.50;;;;;;5088921;28;20662;-73
2023/07/03 07:23:54;;;;;;;4.67;3.30;;;19.70;68.40;;;;;;5089560;28;20632;-73
2023/07/03 07:26:25;;;;;;;6.10;3.50;;;19.80;68.60;;;;;;5091582;28;20739;-73
2023/07/03 07:28:53;;;;;;;6.20;3.60;;;19.90;68.10;;;;;;5089444;28;20645;-73
2023/07/03 07:31:28;;;;;;;4.93;3.40;;;19.70;67.10;;;;;;5090619;28;20674;-73
2023/07/03 07:34:01;;;;;;;4.70;3.40;;;19.80;68.00;;;;;;5087371;28;20677;-73
2023/07/03 07:36:28;;;;;;;4.60;3.00;;;19.90;66.90;;;;;;5092096;28;20651;-73
2023/07/03 07:38:55;;;;;;;6.20;4.70;;;20.00;67.20;;;;;;5091026;28;20629;-72
2023/07/03 07:41:25;;;;;;;2.60;2.20;;;19.80;66.20;;;;;;5090343;28;20990;-71
2023/07/03 07:43:52;;;;;;;2.80;2.37;;;19.70;68.00;;;;;;5091356;28;20613;-71
2023/07/03 07:46:20;;;;;;;3.93;3.53;;;19.70;69.40;;;;;;5089842;28;20647;-72
2023/07/03 07:48:59;;;;;;;4.47;3.50;;;19.70;68.90;;;;;;5089595;28;21040;-72
2023/07/03 07:51:29;;;;;;;4.40;3.57;;;19.80;70.40;;;;;;5088948;28;20633;-72
2023/07/03 07:53:57;;;;;;;5.43;3.90;;;19.80;69.00;;;;;;5082783;28;20720;-72
2023/07/03 07:56:26;;;;;;;7.23;3.20;;;19.70;68.70;;;;;;5098540;28;20973;-72
2023/07/03 07:58:53;;;;;;;5.77;3.93;;;19.80;69.80;;;;;;5093754;28;20629;-72
2023/07/03 08:01:20;;;;;;;4.70;2.67;;;20.00;71.10;;;;;;5094276;28;21020;-72
2023/07/03 08:03:47;;;;;;;4.10;2.80;;;20.20;69.90;;;;;;5091591;28;20621;-71
2023/07/03 08:06:14;;;;;;;3.63;2.90;;;20.20;68.00;;;;;;5093567;28;20944;-71
2023/07/03 08:08:43;;;;;;;2.70;2.13;;;20.00;68.50;;;;;;5090208;28;20968;-71
2023/07/03 08:11:11;;;;;;;6.73;3.70;;;20.00;68.20;;;;;;5094253;28;20637;-71
2023/07/03 08:13:40;;;;;;;4.80;3.67;;;20.00;68.70;;;;;;5104570;28;20622;-72
2023/07/03 08:16:07;;;;;;;5.30;3.20;;;19.90;67.80;;;;;;5099570;28;21220;-72
2023/07/03 08:18:34;;;;;;;5.30;3.20;;;19.90;69.30;;;;;;5098034;28;20720;-72
2023/07/03 08:21:00;;;;;;;5.00;3.20;;;20.00;68.10;;;;;;5098422;28;20991;-72
2023/07/03 08:23:29;;;;;;;4.27;3.87;;;20.00;67.80;;;;;;5094062;28;20632;-72
2023/07/03 08:25:59;;;;;;;4.00;2.77;;;19.90;67.90;;;;;;5096180;28;20661;-72
2023/07/03 08:28:26;;;;;;;4.40;3.53;;;20.00;67.30;;;;;;5090335;28;20652;-72
2023/07/03 08:30:53;;;;;;;3.80;2.80;;;20.00;66.10;;;;;;5091971;28;20968;-72
2023/07/03 08:33:19;;;;;;;4.10;2.63;;;19.90;66.70;;;;;;5088532;28;21050;-72
2023/07/03 08:35:46;;;;;;;4.33;3.73;;;19.80;67.50;;;;;;5092176;28;20650;-72
2023/07/03 08:38:13;;;;;;;6.30;3.53;;;20.00;66.30;;;;;;5094046;28;20715;-72
2023/07/03 08:40:41;;;;;;;7.93;3.57;;;19.90;65.70;;;;;;5092678;28;20656;-72
2023/07/03 08:43:14;;;;;;;6.30;2.60;;;20.10;66.50;;;;;;5094044;28;20631;-72
2023/07/03 08:45:44;;;;;;;3.10;2.77;;;20.20;67.20;;;;;;5091177;28;20987;-72
2023/07/03 08:48:14;;;;;;;8.40;3.70;;;20.50;66.90;;;;;;5093434;28;20621;-72
2023/07/03 08:50:47;;;;;;;3.97;2.43;;;20.50;66.50;;;;;;5091329;28;20728;-72
2023/07/03 08:53:18;;;;;;;6.37;3.47;;;20.40;65.90;;;;;;5091384;28;20623;-72
2023/07/03 08:55:48;;;;;;;5.67;3.40;;;20.20;65.50;;;;;;5091451;28;20748;-72
2023/07/03 08:58:16;;;;;;;8.13;4.17;;;19.90;66.30;;;;;;5097613;28;20685;-71
2023/07/03 09:00:52;;;;;;;4.83;4.03;;;19.80;66.40;;;;;;5093006;28;21238;-71
2023/07/03 09:03:26;;;;;;;7.70;4.53;;;19.60;66.70;;;;;;5094178;28;20982;-71
2023/07/03 09:06:03;;;;;;;3.23;2.73;;;19.70;67.00;;;;;;5094743;28;20645;-71
2023/07/03 09:08:49;;;;;;;5.97;3.63;;;19.70;66.70;;;;;;5093320;28;20636;-71
2023/07/03 09:11:18;;;;;;;9.80;3.67;;;19.80;66.30;;;;;;5084433;28;20747;-71
2023/07/03 09:13:49;;;;;;;4.20;3.63;;;19.90;66.20;;;;;;5094667;28;20699;-71
2023/07/03 09:16:21;;;;;;;5.33;3.87;;;20.30;67.50;;;;;;5087082;28;20655;-71
2023/07/03 09:18:51;;;;;;;6.87;3.53;;;20.80;64.70;;;;;;5091786;28;20967;-72
2023/07/03 09:21:18;;;;;;;4.90;3.60;;;21.20;63.90;;;;;;5084540;28;20671;-72
2023/07/03 09:23:52;;;;;;;5.70;3.90;;;21.20;62.30;;;;;;5097582;28;20626;-72
2023/07/03 09:26:23;;;;;;;5.23;3.17;;;21.40;62.50;;;;;;5093790;28;20651;-72
2023/07/03 09:28:57;;;;;;;6.07;3.80;;;21.20;62.40;;;;;;5094881;28;21005;-73
2023/07/03 09:31:24;;;;;;;4.73;4.13;;;21.10;62.90;;;;;;5099647;28;21235;-72
2023/07/03 09:33:51;;;;;;;5.97;3.97;;;20.80;63.20;;;;;;5094777;28;20617;-72
2023/07/03 09:36:26;;;;;;;5.87;3.33;;;20.80;62.80;;;;;;5097793;28;20683;-72
2023/07/03 09:38:53;;;;;;;3.70;3.20;;;20.80;61.40;;;;;;5091420;28;20671;-72
2023/07/03 09:41:29;;;;;;;3.97;3.03;;;21.00;62.30;;;;;;5089806;28;20668;-72
2023/07/03 09:43:57;;;;;;;5.10;3.80;;;21.20;62.70;;;;;;5096618;28;21244;-72
2023/07/03 09:46:24;;;;;;;4.57;3.43;;;21.30;62.10;;;;;;5095535;28;20647;-72
2023/07/03 09:48:52;;;;;;;4.37;3.97;;;21.50;61.30;;;;;;5091765;28;21010;-72
2023/07/03 09:51:25;;;;;;;4.03;3.10;;;21.80;60.80;;;;;;5092351;28;20644;-72
2023/07/03 09:53:52;;;;;;;3.87;3.07;;;22.10;60.10;;;;;;5084870;28;20625;-72
2023/07/03 09:56:22;;;;;;;3.00;2.67;;;22.10;58.20;;;;;;5099601;28;20653;-72
2023/07/03 09:58:50;;;;;;;6.53;2.90;;;21.80;58.50;;;;;;5092398;28;20943;-72
2023/07/03 10:01:22;;;;;;;3.20;2.53;;;21.60;58.70;;;;;;5099600;28;20668;-72
2023/07/03 10:03:49;;;;;;;5.90;3.00;;;21.50;59.20;;;;;;5096905;28;20649;-72
2023/07/03 10:06:19;;;;;;;4.20;3.30;;;21.40;59.60;;;;;;5093084;28;20649;-72
2023/07/03 10:08:48;;;;;;;6.40;3.10;;;21.30;59.60;;;;;;5096747;28;21180;-71
2023/07/03 10:11:22;;;;;;;5.53;3.37;;;21.20;59.70;;;;;;5102061;28;20644;-71
2023/07/03 10:13:52;;;;;;;5.97;2.87;;;21.40;62.00;;;;;;5104447;28;20615;-72
2023/07/03 10:16:22;;;;;;;3.37;3.07;;;21.60;60.90;;;;;;5093808;28;20652;-72
2023/07/03 10:18:52;;;;;;;5.28;3.30;;;21.60;61.60;;;;;;5093907;28;20741;-72
2023/07/03 10:21:21;;;;;;;5.27;2.67;;;21.60;59.50;;;;;;5082889;28;20215;-72
2023/07/03 10:23:49;;;;;;;3.50;2.70;;;21.50;59.20;;;;;;5097169;28;20993;-73
2023/07/03 10:26:20;;;;;;;4.53;2.87;;;21.50;59.00;;;;;;5090094;28;20733;-71
2023/07/03 10:28:51;;;;;;;4.30;2.80;;;21.70;59.70;;;;;;5090994;28;21167;-72
2023/07/03 10:31:26;;;;;;;4.20;2.37;;;21.80;59.10;;;;;;5091004;28;20639;-72
2023/07/03 10:33:59;;;;;;;6.30;2.67;;;22.30;58.70;;;;;;5090204;28;21374;-75
2023/07/03 10:36:28;;;;;;;7.63;3.53;;;22.90;59.30;;;;;;5089428;28;20650;-74
2023/07/03 10:39:01;;;;;;;3.10;2.53;;;23.30;57.20;;;;;;5089459;28;20626;-74
2023/07/03 10:41:31;;;;;;;2.40;2.13;;;23.40;55.10;;;;;;5089890;28;20769;-74
2023/07/03 10:44:06;;;;;;;2.70;2.10;;;23.20;56.00;;;;;;5091223;28;20621;-75
2023/07/03 10:46:42;;;;;;;3.90;1.87;;;22.70;55.60;;;;;;5090514;28;20650;-74
2023/07/03 10:49:15;;;;;;;6.33;2.50;;;22.50;56.00;;;;;;5090432;28;20625;-74
2023/07/03 10:51:52;;;;;;;2.80;2.13;;;22.60;56.20;;;;;;5091060;28;20649;-73
2023/07/03 10:54:26;;;;;;;6.50;2.00;;;22.50;55.90;;;;;;5090909;28;20624;-73
2023/07/03 10:56:56;;;;;;;2.33;2.13;;;22.30;55.50;;;;;;5082330;28;20737;-73
2023/07/03 10:59:27;;;;;;;1.67;1.57;;;22.10;55.40;;;;;;5090341;28;20614;-74
2023/07/03 11:02:06;;;;;;;4.17;2.17;;;21.90;56.00;;;;;;5090514;28;20674;-74
2023/07/03 11:04:43;;;;;;;4.83;1.93;;;21.90;56.30;;;;;;5091281;28;21124;-74
2023/07/03 11:07:15;;;;;;;3.40;2.00;;;22.10;57.20;;;;;;5076673;28;20655;-74
2023/07/03 11:09:49;;;;;;;1.57;1.33;;;22.20;56.20;;;;;;5087521;28;20618;-74
2023/07/03 11:12:27;;;;;;;2.43;1.40;;;22.30;57.10;;;;;;5087682;28;20641;-74
2023/07/03 11:15:07;;;;;;;2.10;1.50;;;22.10;56.00;;;;;;5087383;28;20625;-74
2023/07/03 11:17:42;;;;;;;7.33;2.03;;;22.10;56.70;;;;;;5087000;28;20708;-73
2023/07/03 11:20:17;;;;;;;2.23;1.83;;;22.50;54.80;;;;;;5087279;28;20629;-72
2023/07/03 11:22:51;;;;;;;2.73;1.60;;;22.90;55.30;;;;;;5092084;28;20653;-71
2023/07/03 11:25:22;;;;;;;2.47;1.67;;;23.40;54.40;;;;;;5087450;28;20619;-71
2023/07/03 11:28:00;;;;;;;2.07;1.73;;;23.60;55.00;;;;;;5088052;28;20621;-73
2023/07/03 11:30:28;;;;;;;2.50;2.30;;;24.10;55.40;;;;;;5079054;28;20646;-73
2023/07/03 11:32:59;;;;;;;2.33;1.60;;;24.60;54.00;;;;;;5087692;28;20627;-73
2023/07/03 11:35:26;;;;;;;2.30;1.90;;;24.20;53.50;;;;;;5091026;28;20768;-73
2023/07/03 11:38:02;;;;;;;3.53;1.60;;;23.60;53.50;;;;;;5088336;28;20657;-73
2023/07/03 11:40:35;;;;;;;3.20;2.13;;;24.10;55.60;;;;;;5089437;28;20653;-73
2023/07/03 11:43:24;;;;;;;2.70;2.00;;;24.50;54.50;;;;;;5089937;28;20666;-73
2023/07/03 11:46:09;;;;;;;1.80;1.70;;;24.20;53.90;;;;;;5087770;28;20825;-72
2023/07/03 11:48:46;;;;;;;3.27;2.60;;;24.30;53.40;;;;;;5098594;28;20627;-73
2023/07/03 11:51:14;;;;;;;4.13;2.30;;;24.30;54.80;;;;;;5092281;28;20651;-73
2023/07/03 11:53:44;;;;;;;1.90;1.60;;;24.20;54.40;;;;;;5095282;28;20679;-72
2023/07/03 11:56:36;;;;;;;2.50;2.03;;;24.20;53.40;;;;;;5095318;28;20638;-72
2023/07/03 11:59:05;;;;;;;1.73;1.60;;;24.50;53.90;;;;;;5086701;28;20672;-72
2023/07/03 12:01:33;;;;;;;2.40;1.90;;;24.60;55.60;;;;;;5095424;28;20668;-72
2023/07/03 12:04:03;;;;;;;4.60;2.37;;;24.80;54.10;;;;;;5091284;28;21186;-72
2023/07/03 12:06:47;;;;;;;2.13;1.93;;;24.80;54.60;;;;;;5088792;28;20655;-72
2023/07/03 12:09:31;;;;;;;2.47;2.10;;;26.80;53.40;;;;;;5102998;28;20705;-72
2023/07/03 12:12:19;;;;;;;1.83;1.70;;;27.10;51.30;;;;;;5095546;28;21276;-73
2023/07/03 12:14:57;;;;;;;2.07;1.87;;;26.40;51.00;;;;;;5098086;28;20616;-73
2023/07/03 12:17:27;;;;;;;2.37;2.17;;;27.70;54.00;;;;;;5096276;28;20643;-72
2023/07/03 12:19:58;;;;;;;4.63;2.30;;;29.40;51.00;;;;;;5090395;28;21276;-72
2023/07/03 12:22:28;;;;;;;3.00;2.60;;;28.90;49.40;;;;;;5094782;28;20667;-73
2023/07/03 12:25:02;;;;;;;4.83;2.97;;;28.30;49.80;;;;;;5097008;28;20630;-73
2023/07/03 12:27:29;;;;;;;2.53;2.20;;;27.60;51.30;;;;;;5087536;28;20633;-73
2023/07/03 12:29:56;;;;;;;3.07;2.60;;;28.60;52.40;;;;;;5096647;28;20639;-73
2023/07/03 12:32:25;;;;;;;3.27;2.10;;;30.00;51.10;;;;;;5097627;28;20652;-73
2023/07/03 12:34:52;;;;;;;2.80;2.60;;;30.80;49.80;;;;;;5095378;28;21041;-73
2023/07/03 12:37:24;;;;;;;3.10;2.90;;;30.40;47.60;;;;;;5091363;28;21211;-73
2023/07/03 12:39:52;;;;;;;2.80;2.53;;;29.20;48.70;;;;;;5094756;28;20688;-73
2023/07/03 12:42:24;;;;;;;2.27;1.80;;;29.80;48.10;;;;;;5097731;28;20694;-73
2023/07/03 12:44:51;;;;;;;2.63;2.00;;;30.80;47.00;;;;;;5096156;28;20706;-73
2023/07/03 12:47:21;;;;;;;3.00;2.17;;;31.70;47.20;;;;;;5099104;28;20989;-73
2023/07/03 12:49:55;;;;;;;3.57;2.53;;;31.90;45.60;;;;;;5093231;28;21295;-73
2023/07/03 12:52:24;;;;;;;1.97;1.87;;;32.30;46.70;;;;;;5097789;28;21030;-73
2023/07/03 12:54:51;;;;;;;3.33;2.43;;;31.60;44.60;;;;;;5082632;28;20632;-73
2023/07/03 12:57:20;;;;;;;1.97;1.87;;;29.80;46.20;;;;;;5088978;28;20658;-73